Algoma Mariner — CFN5517 — position and weather

sailwx.info

Track history (hours):
 
Tides and Currents Weather Stations Pressure Air Temp Water Temp Dewpoint Dewpoint Depression Visibility Wind Speed Wind Dir Waves Ship Positions

Algoma Mariner

Last reported at 2016-May-06 03:31 UTC. Time now 2016-May-06 03:34 UTC.
Position N 45°50' W 073°17'.

Length 225 m; draft 7.4 m.

Type: Cargo ship. MMSI: 316014050.

Date/timePositionNaut miles runAvg speedWind from/ knotsBaromVisibWave heightAir tempDewpointWater temp
2016-May-06 03:31N 45°50' W 073°17'0 0.0
2016-May-06 02:28N 45°50' W 073°17'0 0.0
2016-May-06 01:25N 45°50' W 073°17'0 0.0
2016-May-06 00:31N 45°50' W 073°17'0 0.0
2016-May-05 23:31N 45°50' W 073°17'0 0.0
2016-May-05 22:31N 45°50' W 073°17'0 0.0
2016-May-05 21:31N 45°50' W 073°17'0 0.0
2016-May-05 20:31N 45°50' W 073°17'0 0.0
2016-May-05 19:31N 45°50' W 073°17'1 1.5
2016-May-05 18:33N 45°51' W 073°16'8 8.3
2016-May-05 17:34N 45°59' W 073°11'2 1.7
2016-May-05 16:33N 46°00' W 073°10'0 0.0
2016-May-05 15:33N 46°00' W 073°10'0 0.0
2016-May-05 14:33N 46°00' W 073°10'0 0.0
2016-May-05 13:33N 46°00' W 073°10'0 0.0
2016-May-05 12:33N 46°00' W 073°10'0 0.0
2016-May-05 11:33N 46°00' W 073°10'0 0.0
2016-May-05 10:33N 46°00' W 073°10'0 0.0
2016-May-05 09:33N 46°00' W 073°10'0 0.0
2016-May-05 08:33N 46°00' W 073°10'0 0.0
2016-May-05 07:30N 46°00' W 073°10'0 0.0
2016-May-05 06:33N 46°00' W 073°10'0 0.0
2016-May-05 05:33N 46°00' W 073°10'0 0.0
2016-May-05 04:33N 46°00' W 073°10'0 0.0
2016-May-05 03:33N 46°00' W 073°10'0 0.0
2016-May-05 02:33N 46°00' W 073°10'0 0.0
2016-May-05 01:33N 46°00' W 073°10'0 0.0
2016-May-05 00:33N 46°00' W 073°10'0 0.0
2016-May-04 23:27N 46°00' W 073°10'0 0.0
2016-May-04 22:33N 46°00' W 073°10'0 0.0
2016-May-04 21:33N 46°00' W 073°10'0 0.0
2016-May-04 20:27N 46°00' W 073°10'0 0.0
2016-May-04 19:33N 46°00' W 073°10'0 0.0
2016-May-04 18:33N 46°00' W 073°10'0 0.0
2016-May-04 17:33N 46°00' W 073°10'3 2.6
2016-May-04 16:33N 46°03' W 073°09'9 8.7
2016-May-04 15:33N 46°07' W 072°58'10 9.5
2016-May-04 14:32N 46°13' W 072°48'  
2016-May-01 04:26N 46°13' W 072°49'1213.5
2016-May-01 03:34N 46°05' W 073°01'1212.0
2016-May-01 02:33N 45°56' W 073°13'6 6.3
2016-May-01 01:33N 45°50' W 073°17'0 0.0
2016-May-01 00:33N 45°50' W 073°17'0 0.0
2016-Apr-30 23:33N 45°50' W 073°17'0 0.0
2016-Apr-30 22:33N 45°50' W 073°17'0 0.0
2016-Apr-30 21:33N 45°50' W 073°17'0 0.0
2016-Apr-30 20:33N 45°50' W 073°17'0 0.0
2016-Apr-30 19:33N 45°50' W 073°17'0 0.0
2016-Apr-30 18:33N 45°50' W 073°17'0 0.0
2016-Apr-30 17:33N 45°50' W 073°17'0 0.0
2016-Apr-30 16:33N 45°50' W 073°17'0 0.1
2016-Apr-30 15:34N 45°50' W 073°17'7 6.9
2016-Apr-30 14:33N 45°56' W 073°13'8 8.2
2016-Apr-30 13:33N 46°03' W 073°07'9 8.6
2016-Apr-30 12:33N 46°09' W 072°57'10 9.8
2016-Apr-30 11:34N 46°14' W 072°45'9 8.9
2016-Apr-30 10:32N 46°18' W 072°34'  
2016-Apr-27 13:27N 46°10' W 072°56'1212.9
2016-Apr-27 12:33N 46°03' W 073°09'1413.7
2016-Apr-27 11:33N 45°50' W 073°17'0 0.2
2016-Apr-27 10:31N 45°50' W 073°17'0 0.0
2016-Apr-27 09:31N 45°50' W 073°17'0 0.0
2016-Apr-27 08:31N 45°50' W 073°17'0 0.0
2016-Apr-27 07:31N 45°50' W 073°17'0 0.0
2016-Apr-27 06:31N 45°50' W 073°17'0 0.0
2016-Apr-27 05:31N 45°50' W 073°17'0 0.0
2016-Apr-27 04:31N 45°50' W 073°17'0 0.0
2016-Apr-27 03:28N 45°50' W 073°17'0 0.0
2016-Apr-27 02:31N 45°50' W 073°17'0 0.0
2016-Apr-27 01:31N 45°50' W 073°17'0 0.0
2016-Apr-27 00:25N 45°50' W 073°17'0 0.0
2016-Apr-26 23:31N 45°50' W 073°17'0 0.3
2016-Apr-26 22:33N 45°50' W 073°17'7 7.1
2016-Apr-26 21:33N 45°57' W 073°13'8 8.2
2016-Apr-26 20:33N 46°03' W 073°06'9 9.0
2016-Apr-26 19:33N 46°10' W 072°57'  
Track history (hours):
 
Tides and Currents Weather Stations Pressure Air Temp Water Temp Dewpoint Dewpoint Depression Visibility Wind Speed Wind Dir Waves Ship Positions

Algoma Mariner

Last reported at 2016-May-06 03:31 UTC. Time now 2016-May-06 03:34 UTC.
Position N 45°50' W 073°17'.

Length 225 m; draft 7.4 m.

Type: Cargo ship. MMSI: 316014050.

Date/timePositionNaut miles runAvg speedWind from/ knotsBaromVisibWave heightAir tempDewpointWater temp
2016-May-06 03:31N 45°50' W 073°17'0 0.0
2016-May-06 02:28N 45°50' W 073°17'0 0.0
2016-May-06 01:25N 45°50' W 073°17'0 0.0
2016-May-06 00:31N 45°50' W 073°17'0 0.0
2016-May-05 23:31N 45°50' W 073°17'0 0.0
2016-May-05 22:31N 45°50' W 073°17'0 0.0
2016-May-05 21:31N 45°50' W 073°17'0 0.0
2016-May-05 20:31N 45°50' W 073°17'0 0.0
2016-May-05 19:31N 45°50' W 073°17'1 1.5
2016-May-05 18:33N 45°51' W 073°16'8 8.3
2016-May-05 17:34N 45°59' W 073°11'2 1.7
2016-May-05 16:33N 46°00' W 073°10'0 0.0
2016-May-05 15:33N 46°00' W 073°10'0 0.0
2016-May-05 14:33N 46°00' W 073°10'0 0.0
2016-May-05 13:33N 46°00' W 073°10'0 0.0
2016-May-05 12:33N 46°00' W 073°10'0 0.0
2016-May-05 11:33N 46°00' W 073°10'0 0.0
2016-May-05 10:33N 46°00' W 073°10'0 0.0
2016-May-05 09:33N 46°00' W 073°10'0 0.0
2016-May-05 08:33N 46°00' W 073°10'0 0.0
2016-May-05 07:30N 46°00' W 073°10'0 0.0
2016-May-05 06:33N 46°00' W 073°10'0 0.0
2016-May-05 05:33N 46°00' W 073°10'0 0.0
2016-May-05 04:33N 46°00' W 073°10'0 0.0
2016-May-05 03:33N 46°00' W 073°10'0 0.0
2016-May-05 02:33N 46°00' W 073°10'0 0.0
2016-May-05 01:33N 46°00' W 073°10'0 0.0
2016-May-05 00:33N 46°00' W 073°10'0 0.0
2016-May-04 23:27N 46°00' W 073°10'0 0.0
2016-May-04 22:33N 46°00' W 073°10'0 0.0
2016-May-04 21:33N 46°00' W 073°10'0 0.0
2016-May-04 20:27N 46°00' W 073°10'0 0.0
2016-May-04 19:33N 46°00' W 073°10'0 0.0
2016-May-04 18:33N 46°00' W 073°10'0 0.0
2016-May-04 17:33N 46°00' W 073°10'3 2.6
2016-May-04 16:33N 46°03' W 073°09'9 8.7
2016-May-04 15:33N 46°07' W 072°58'10 9.5
2016-May-04 14:32N 46°13' W 072°48'  
2016-May-01 04:26N 46°13' W 072°49'1213.5
2016-May-01 03:34N 46°05' W 073°01'1212.0
2016-May-01 02:33N 45°56' W 073°13'6 6.3
2016-May-01 01:33N 45°50' W 073°17'0 0.0
2016-May-01 00:33N 45°50' W 073°17'0 0.0
2016-Apr-30 23:33N 45°50' W 073°17'0 0.0
2016-Apr-30 22:33N 45°50' W 073°17'0 0.0
2016-Apr-30 21:33N 45°50' W 073°17'0 0.0
2016-Apr-30 20:33N 45°50' W 073°17'0 0.0
2016-Apr-30 19:33N 45°50' W 073°17'0 0.0
2016-Apr-30 18:33N 45°50' W 073°17'0 0.0
2016-Apr-30 17:33N 45°50' W 073°17'0 0.0
2016-Apr-30 16:33N 45°50' W 073°17'0 0.1
2016-Apr-30 15:34N 45°50' W 073°17'7 6.9
2016-Apr-30 14:33N 45°56' W 073°13'8 8.2
2016-Apr-30 13:33N 46°03' W 073°07'9 8.6
2016-Apr-30 12:33N 46°09' W 072°57'10 9.8
2016-Apr-30 11:34N 46°14' W 072°45'9 8.9
2016-Apr-30 10:32N 46°18' W 072°34'  
2016-Apr-27 13:27N 46°10' W 072°56'1212.9
2016-Apr-27 12:33N 46°03' W 073°09'1413.7
2016-Apr-27 11:33N 45°50' W 073°17'0 0.2
2016-Apr-27 10:31N 45°50' W 073°17'0 0.0
2016-Apr-27 09:31N 45°50' W 073°17'0 0.0
2016-Apr-27 08:31N 45°50' W 073°17'0 0.0
2016-Apr-27 07:31N 45°50' W 073°17'0 0.0
2016-Apr-27 06:31N 45°50' W 073°17'0 0.0
2016-Apr-27 05:31N 45°50' W 073°17'0 0.0
2016-Apr-27 04:31N 45°50' W 073°17'0 0.0
2016-Apr-27 03:28N 45°50' W 073°17'0 0.0
2016-Apr-27 02:31N 45°50' W 073°17'0 0.0
2016-Apr-27 01:31N 45°50' W 073°17'0 0.0
2016-Apr-27 00:25N 45°50' W 073°17'0 0.0
2016-Apr-26 23:31N 45°50' W 073°17'0 0.3
2016-Apr-26 22:33N 45°50' W 073°17'7 7.1
2016-Apr-26 21:33N 45°57' W 073°13'8 8.2
2016-Apr-26 20:33N 46°03' W 073°06'9 9.0
2016-Apr-26 19:33N 46°10' W 072°57'  

Dump ship's entire track history